createdAt,value
2023-03-25T00:01:17.253Z,83.48
2023-03-25T00:03:46.763Z,83.68
2023-03-25T00:06:13.930Z,83.65
2023-03-25T00:08:40.514Z,83.64
2023-03-25T00:11:08.288Z,83.47
2023-03-25T00:13:35.156Z,83.59
2023-03-25T00:16:03.011Z,83.51
2023-03-25T00:18:33.762Z,83.37
2023-03-25T00:21:04.312Z,83.45
2023-03-25T00:23:31.690Z,83.53
2023-03-25T00:26:01.671Z,83.92
2023-03-25T00:28:31.195Z,84.33
2023-03-25T00:31:06.478Z,84.42
2023-03-25T00:33:33.357Z,84.12
2023-03-25T00:36:00.083Z,84.37
2023-03-25T00:38:33.429Z,84.22
2023-03-25T00:41:25.393Z,84.67
2023-03-25T00:43:53.098Z,84.43
2023-03-25T00:46:19.722Z,84.62
2023-03-25T00:48:46.332Z,84.76
2023-03-25T00:51:14.663Z,84.77
2023-03-25T00:53:41.266Z,85.09
2023-03-25T00:56:08.065Z,84.99
2023-03-25T00:58:34.572Z,85.15
2023-03-25T01:01:01.072Z,85.24
2023-03-25T01:03:29.167Z,85.62
2023-03-25T01:05:56.505Z,85.61
2023-03-25T01:08:25.800Z,85.73
2023-03-25T01:10:56.684Z,85.81
2023-03-25T01:13:23.743Z,86.18
2023-03-25T01:15:50.597Z,86.57
2023-03-25T01:18:17.329Z,86.73
2023-03-25T01:20:43.853Z,86.79
2023-03-25T01:23:10.786Z,87.27
2023-03-25T01:25:37.618Z,87.42
2023-03-25T01:28:05.299Z,87.57
2023-03-25T01:30:32.122Z,88.02
2023-03-25T01:32:58.693Z,87.98
2023-03-25T01:35:25.536Z,87.96
2023-03-25T01:37:54.601Z,87.99
2023-03-25T01:40:23.931Z,88.17
2023-03-25T01:42:51.566Z,88.12
2023-03-25T01:45:22.609Z,88.56
2023-03-25T01:47:58.510Z,88.56
2023-03-25T01:50:29.109Z,88.89
2023-03-25T01:52:57.485Z,88.80
2023-03-25T01:55:24.440Z,89.05
2023-03-25T01:57:55.135Z,89.18
2023-03-25T02:00:22.908Z,89.12
2023-03-25T02:02:50.876Z,89.16
2023-03-25T02:05:27.829Z,89.83
2023-03-25T02:07:54.992Z,89.83
2023-03-25T02:10:22.305Z,89.94
2023-03-25T02:12:49.340Z,90.32
2023-03-25T02:15:18.052Z,90.57
2023-03-25T02:18:09.094Z,90.31
2023-03-25T02:20:37.598Z,90.64
2023-03-25T02:23:22.280Z,90.94
2023-03-25T02:26:19.525Z,90.62
2023-03-25T02:28:48.812Z,90.77
2023-03-25T02:31:54.987Z,90.84
2023-03-25T02:34:41.731Z,91.21
2023-03-25T02:37:41.607Z,91.38
2023-03-25T02:40:22.869Z,91.13
2023-03-25T02:42:53.456Z,91.27
2023-03-25T02:45:28.160Z,91.43
2023-03-25T02:48:00.133Z,91.34
2023-03-25T02:50:34.610Z,91.44
2023-03-25T02:53:06.120Z,91.36
2023-03-25T02:55:33.560Z,91.63
2023-03-25T02:58:04.142Z,91.60
2023-03-25T03:00:31.352Z,91.35
2023-03-25T03:03:03.052Z,91.73
2023-03-25T03:05:31.997Z,91.23
2023-03-25T03:08:04.500Z,91.31
2023-03-25T03:10:46.921Z,91.60
2023-03-25T03:13:28.283Z,91.66
2023-03-25T03:16:09.571Z,91.78
2023-03-25T03:18:57.281Z,91.46
2023-03-25T03:22:04.228Z,91.40
2023-03-25T03:24:36.992Z,91.68
2023-03-25T03:27:12.862Z,91.89
2023-03-25T03:29:51.043Z,92.09
2023-03-25T03:32:37.622Z,91.66
2023-03-25T03:35:10.696Z,91.80
2023-03-25T03:37:41.651Z,91.68
2023-03-25T03:40:11.577Z,91.83
2023-03-25T03:42:42.177Z,91.75
2023-03-25T03:45:13.860Z,91.31
2023-03-25T03:47:44.465Z,91.27
2023-03-25T03:50:15.451Z,91.06
2023-03-25T03:52:50.972Z,91.18
2023-03-25T03:55:23.912Z,90.80
2023-03-25T03:57:55.983Z,90.95
2023-03-25T04:00:26.586Z,90.62
2023-03-25T04:03:01.944Z,90.60
2023-03-25T04:05:31.041Z,90.45
2023-03-25T04:08:04.216Z,90.81
2023-03-25T04:10:40.130Z,90.32
2023-03-25T04:13:13.865Z,90.64
2023-03-25T04:15:41.154Z,90.46
2023-03-25T04:18:08.234Z,91.13
2023-03-25T04:20:36.562Z,91.25
2023-03-25T04:23:04.969Z,91.46
2023-03-25T04:25:34.887Z,91.27
2023-03-25T04:28:01.384Z,91.58
2023-03-25T04:30:28.896Z,91.16
2023-03-25T04:32:55.685Z,91.04
2023-03-25T04:35:22.190Z,90.80
2023-03-25T04:37:54.423Z,90.37
2023-03-25T04:40:21.127Z,90.01
2023-03-25T04:42:48.259Z,89.71
2023-03-25T04:45:17.004Z,89.85
2023-03-25T04:47:47.311Z,89.88
2023-03-25T04:50:28.192Z,89.81
2023-03-25T04:52:57.621Z,89.63
2023-03-25T04:55:25.759Z,89.78
2023-03-25T04:57:54.322Z,89.54
2023-03-25T05:00:24.121Z,89.25
2023-03-25T05:02:54.160Z,88.59
2023-03-25T05:05:24.161Z,87.99
2023-03-25T05:07:53.210Z,87.97
2023-03-25T05:10:21.780Z,87.76
2023-03-25T05:12:48.959Z,87.79
2023-03-25T05:15:17.183Z,87.54
2023-03-25T05:17:44.379Z,87.85
2023-03-25T05:20:11.583Z,87.28
2023-03-25T05:22:38.615Z,87.63
2023-03-25T05:25:06.738Z,87.28
2023-03-25T05:27:34.551Z,87.27
2023-03-25T05:30:01.218Z,87.21
2023-03-25T05:32:34.849Z,86.78
2023-03-25T05:35:02.964Z,86.95
2023-03-25T05:37:29.837Z,87.30
2023-03-25T05:39:56.433Z,87.52
2023-03-25T05:42:23.262Z,87.69
2023-03-25T05:44:53.694Z,87.72
2023-03-25T05:47:23.326Z,87.45
2023-03-25T05:49:51.296Z,86.65
2023-03-25T05:52:18.688Z,86.54
2023-03-25T05:54:46.313Z,86.32
2023-03-25T05:57:13.375Z,86.32
2023-03-25T05:59:40.614Z,85.59
2023-03-25T06:02:08.644Z,85.75
2023-03-25T06:04:41.387Z,85.67
2023-03-25T06:07:19.904Z,85.09
2023-03-25T06:09:47.771Z,84.99
2023-03-25T06:12:19.996Z,84.58
2023-03-25T06:14:47.939Z,83.97
2023-03-25T06:17:16.130Z,83.81
2023-03-25T06:19:42.672Z,83.25
2023-03-25T06:22:11.023Z,83.27
2023-03-25T06:24:41.733Z,83.57
2023-03-25T06:27:12.884Z,83.34
2023-03-25T06:29:41.794Z,83.00
2023-03-25T06:32:09.772Z,82.93
2023-03-25T06:34:37.132Z,82.96
2023-03-25T06:37:08.231Z,82.38
2023-03-25T06:39:37.783Z,82.25
2023-03-25T06:42:06.229Z,82.09
2023-03-25T06:44:33.809Z,81.08
2023-03-25T06:47:03.083Z,80.02
2023-03-25T06:49:29.869Z,79.55
2023-03-25T06:51:56.572Z,79.65
2023-03-25T06:54:23.207Z,79.15
2023-03-25T06:56:50.178Z,78.85
2023-03-25T06:59:16.753Z,77.83
2023-03-25T07:01:43.571Z,77.10
2023-03-25T07:04:10.485Z,77.17
2023-03-25T07:06:36.998Z,76.59
2023-03-25T07:09:04.863Z,76.41
2023-03-25T07:11:32.572Z,77.07
2023-03-25T07:13:59.593Z,76.15
2023-03-25T07:16:27.010Z,75.22
2023-03-25T07:18:54.973Z,73.65
2023-03-25T07:21:21.713Z,73.46
2023-03-25T07:23:48.904Z,72.60
2023-03-25T07:26:15.808Z,67.41
2023-03-25T07:28:42.810Z,60.64
2023-03-25T07:31:13.567Z,54.83
2023-03-25T07:33:40.752Z,51.82
2023-03-25T07:36:11.359Z,48.57
2023-03-25T07:38:38.541Z,46.94
2023-03-25T07:41:11.739Z,46.19
2023-03-25T07:43:39.216Z,43.64
2023-03-25T07:46:06.966Z,48.59
2023-03-25T07:48:33.735Z,51.67
2023-03-25T07:51:01.036Z,52.46
2023-03-25T07:53:27.821Z,51.36
2023-03-25T07:55:54.708Z,45.70
2023-03-25T07:58:21.392Z,46.64
2023-03-25T08:00:48.082Z,48.31
2023-03-25T08:03:15.758Z,48.72
2023-03-25T08:05:48.867Z,50.17
2023-03-25T08:08:17.626Z,49.21
2023-03-25T08:10:48.346Z,45.75
2023-03-25T08:13:15.389Z,41.33
2023-03-25T08:15:42.334Z,40.93
2023-03-25T08:18:11.899Z,41.60
2023-03-25T08:20:38.656Z,39.19
2023-03-25T08:23:10.486Z,37.67
2023-03-25T08:25:37.781Z,37.70
2023-03-25T08:28:05.346Z,36.85
2023-03-25T08:30:38.858Z,35.72
2023-03-25T08:33:07.483Z,37.56
2023-03-25T08:35:35.368Z,38.60
2023-03-25T08:38:05.276Z,41.10
2023-03-25T08:40:33.110Z,44.17
2023-03-25T08:43:00.290Z,46.46
2023-03-25T08:45:27.144Z,48.02
2023-03-25T08:47:53.786Z,49.30
2023-03-25T08:50:21.012Z,49.44
2023-03-25T08:52:48.513Z,50.66
2023-03-25T08:55:16.413Z,52.31
2023-03-25T08:57:42.950Z,53.90
2023-03-25T09:00:13.473Z,53.49
2023-03-25T09:02:42.309Z,51.74
2023-03-25T09:05:15.945Z,52.92
2023-03-25T09:07:43.081Z,53.00
2023-03-25T09:10:10.134Z,51.90
2023-03-25T09:12:37.272Z,53.74
2023-03-25T09:15:04.865Z,54.36
2023-03-25T09:17:31.722Z,55.44
2023-03-25T09:19:58.950Z,57.21
2023-03-25T09:22:25.797Z,56.96
2023-03-25T09:24:52.437Z,57.90
2023-03-25T09:27:19.034Z,56.31
2023-03-25T09:29:45.962Z,56.20
2023-03-25T09:32:13.062Z,57.45
2023-03-25T09:34:39.718Z,57.17
2023-03-25T09:37:06.399Z,56.72
2023-03-25T09:39:33.186Z,57.52
2023-03-25T09:42:21.056Z,58.17
2023-03-25T09:45:21.693Z,58.36
2023-03-25T09:47:58.940Z,58.71
2023-03-25T09:50:26.792Z,57.77
2023-03-25T09:53:16.347Z,57.67
2023-03-25T09:55:44.787Z,57.77
2023-03-25T09:58:36.036Z,58.26
2023-03-25T10:01:08.541Z,58.82
2023-03-25T10:03:47.901Z,58.37
2023-03-25T10:06:19.776Z,58.20
2023-03-25T10:08:52.813Z,56.72
2023-03-25T10:11:26.088Z,55.62
2023-03-25T10:14:12.305Z,56.03
2023-03-25T10:17:21.233Z,55.56
2023-03-25T10:20:11.396Z,56.82
2023-03-25T10:23:05.200Z,55.52
2023-03-25T10:25:34.874Z,56.20
2023-03-25T10:28:01.919Z,54.84
2023-03-25T10:30:35.136Z,53.62
2023-03-25T10:33:19.036Z,53.46
2023-03-25T10:35:48.571Z,52.33
2023-03-25T10:38:24.307Z,53.20
2023-03-25T10:40:56.769Z,51.61
2023-03-25T10:43:23.322Z,53.38
2023-03-25T10:45:52.397Z,54.83
2023-03-25T10:48:22.782Z,54.51
2023-03-25T10:50:51.763Z,52.66
2023-03-25T10:53:25.912Z,54.32
2023-03-25T10:55:58.678Z,54.00
2023-03-25T10:58:25.904Z,51.46
2023-03-25T11:00:52.615Z,49.54
2023-03-25T11:03:31.507Z,50.96
2023-03-25T11:05:58.935Z,51.26
2023-03-25T11:08:27.253Z,50.50
2023-03-25T11:10:57.638Z,49.86
2023-03-25T11:13:27.105Z,50.46
2023-03-25T11:15:55.300Z,49.44
2023-03-25T11:18:31.512Z,49.68
2023-03-25T11:21:04.693Z,49.00
2023-03-25T11:23:33.897Z,46.98
2023-03-25T11:26:07.097Z,47.29
2023-03-25T11:28:40.760Z,46.72
2023-03-25T11:31:22.294Z,46.45
2023-03-25T11:34:10.876Z,46.58
2023-03-25T11:37:16.895Z,46.95
2023-03-25T11:39:49.852Z,46.93
2023-03-25T11:42:49.580Z,46.47
2023-03-25T11:45:27.337Z,47.36
2023-03-25T11:47:58.452Z,48.53
2023-03-25T11:50:27.552Z,47.37
2023-03-25T11:52:57.379Z,47.53
2023-03-25T11:55:27.138Z,48.43
2023-03-25T11:57:56.396Z,48.03
2023-03-25T12:00:29.300Z,48.64
2023-03-25T12:03:00.934Z,49.63
2023-03-25T12:05:27.490Z,49.32
2023-03-25T12:08:05.025Z,49.46
2023-03-25T12:10:32.118Z,48.88
2023-03-25T12:13:04.799Z,48.90
2023-03-25T12:15:39.391Z,48.18
2023-03-25T12:18:16.652Z,48.29
2023-03-25T12:20:55.242Z,48.89
2023-03-25T12:23:33.905Z,48.38
2023-03-25T12:26:16.234Z,47.68
2023-03-25T12:28:54.141Z,48.49
2023-03-25T12:31:20.741Z,49.24
2023-03-25T12:33:54.004Z,49.54
2023-03-25T12:36:33.906Z,49.32
2023-03-25T12:39:35.614Z,49.83
2023-03-25T12:42:37.767Z,50.66
2023-03-25T12:45:19.413Z,52.03
2023-03-25T12:47:56.328Z,52.93
2023-03-25T12:50:56.829Z,58.06
2023-03-25T12:53:55.673Z,59.97
2023-03-25T12:56:43.451Z,64.21
2023-03-25T12:59:32.758Z,62.54
2023-03-25T13:01:59.318Z,65.42
2023-03-25T13:04:25.846Z,67.25
2023-03-25T13:07:11.924Z,67.50
2023-03-25T13:10:17.530Z,66.74
2023-03-25T13:12:51.289Z,65.60
2023-03-25T13:15:30.855Z,67.61
2023-03-25T13:18:14.106Z,68.47
2023-03-25T13:20:45.508Z,69.45
2023-03-25T13:23:18.464Z,68.98
2023-03-25T13:25:49.542Z,68.92
2023-03-25T13:28:23.127Z,67.69
2023-03-25T13:30:50.729Z,67.08
2023-03-25T13:33:25.220Z,65.47
2023-03-25T13:36:22.151Z,66.53
2023-03-25T13:38:54.230Z,66.30
2023-03-25T13:41:26.766Z,64.71
2023-03-25T13:44:05.191Z,64.66
2023-03-25T13:47:02.004Z,64.16
2023-03-25T13:49:44.223Z,63.48
2023-03-25T13:52:11.411Z,62.60
2023-03-25T13:54:54.648Z,64.29
2023-03-25T13:57:42.143Z,64.31
2023-03-25T14:00:12.081Z,62.40
2023-03-25T14:02:44.578Z,62.13
2023-03-25T14:05:23.302Z,62.60
2023-03-25T14:07:56.997Z,63.24
2023-03-25T14:10:37.661Z,63.03
2023-03-25T14:13:07.246Z,62.88
2023-03-25T14:15:36.858Z,61.25
2023-03-25T14:18:04.707Z,60.27
2023-03-25T14:20:41.371Z,58.48
2023-03-25T14:23:14.501Z,56.59
2023-03-25T14:25:44.861Z,57.01
2023-03-25T14:28:21.664Z,56.97
2023-03-25T14:31:14.014Z,57.72
2023-03-25T14:34:03.225Z,58.03
2023-03-25T14:36:30.165Z,58.02
2023-03-25T14:38:58.362Z,58.96
2023-03-25T14:42:11.597Z,58.85
2023-03-25T14:44:41.298Z,57.30
2023-03-25T14:47:20.281Z,57.20
2023-03-25T14:50:27.722Z,56.16
2023-03-25T14:53:06.783Z,56.40
2023-03-25T14:55:41.011Z,56.10
2023-03-25T14:58:28.119Z,55.79
2023-03-25T15:01:05.174Z,58.26
2023-03-25T15:03:36.170Z,60.53
2023-03-25T15:06:04.551Z,61.91
2023-03-25T15:08:39.246Z,63.36
2023-03-25T15:11:14.522Z,65.40
2023-03-25T15:13:46.622Z,66.94
2023-03-25T15:16:36.438Z,68.79
2023-03-25T15:19:11.530Z,70.56
2023-03-25T15:22:10.844Z,70.62
2023-03-25T15:24:39.667Z,71.09
2023-03-25T15:27:32.311Z,72.45
2023-03-25T15:30:24.514Z,72.80
2023-03-25T15:32:53.822Z,74.58
2023-03-25T15:35:29.666Z,76.17
2023-03-25T15:38:17.655Z,77.92
2023-03-25T15:41:15.041Z,77.67
2023-03-25T15:44:04.524Z,77.05
2023-03-25T15:46:53.004Z,75.71
2023-03-25T15:49:34.442Z,74.79
2023-03-25T15:52:33.681Z,73.81
2023-03-25T15:55:09.673Z,74.04
2023-03-25T15:57:56.587Z,73.25
2023-03-25T16:00:27.795Z,73.16
2023-03-25T16:03:00.789Z,73.01
2023-03-25T16:05:28.091Z,72.91
2023-03-25T16:07:56.426Z,72.90
2023-03-25T16:10:33.255Z,72.73
2023-03-25T16:13:04.198Z,72.52
2023-03-25T16:15:32.721Z,73.53
2023-03-25T16:18:00.534Z,74.95
2023-03-25T16:20:28.458Z,75.86
2023-03-25T16:22:57.978Z,75.97
2023-03-25T16:25:35.698Z,76.82
2023-03-25T16:28:12.661Z,78.08
2023-03-25T16:30:42.611Z,78.71
2023-03-25T16:33:12.655Z,79.03
2023-03-25T16:35:47.708Z,79.55
2023-03-25T16:38:17.303Z,79.95
2023-03-25T16:40:46.810Z,80.03
2023-03-25T16:43:23.015Z,80.37
2023-03-25T16:45:51.691Z,80.44
2023-03-25T16:48:23.433Z,80.41
2023-03-25T16:50:55.253Z,80.63
2023-03-25T16:53:22.785Z,80.36
2023-03-25T16:55:56.442Z,80.28
2023-03-25T16:58:24.493Z,80.30
2023-03-25T17:00:53.770Z,80.30
2023-03-25T17:03:43.690Z,80.29
2023-03-25T17:06:26.230Z,80.38
2023-03-25T17:08:59.016Z,79.36
2023-03-25T17:11:30.491Z,78.66
2023-03-25T17:14:07.891Z,78.00
2023-03-25T17:16:36.694Z,77.25
2023-03-25T17:19:04.649Z,77.60
2023-03-25T17:21:34.026Z,77.98
2023-03-25T17:24:21.680Z,78.20
2023-03-25T17:27:05.500Z,78.47
2023-03-25T17:29:32.342Z,79.00
2023-03-25T17:31:59.382Z,78.71
2023-03-25T17:34:26.960Z,78.35
2023-03-25T17:36:58.823Z,78.65
2023-03-25T17:39:30.778Z,78.29
2023-03-25T17:42:03.394Z,78.28
2023-03-25T17:44:41.219Z,77.97
2023-03-25T17:47:12.534Z,77.93
2023-03-25T17:49:39.109Z,78.09
2023-03-25T17:52:08.238Z,78.16
2023-03-25T17:54:35.908Z,78.98
2023-03-25T17:57:09.361Z,78.51
2023-03-25T17:59:36.218Z,78.24
2023-03-25T18:02:15.555Z,78.17
2023-03-25T18:04:42.283Z,77.84
2023-03-25T18:07:08.936Z,77.83
2023-03-25T18:09:36.455Z,77.38
2023-03-25T18:12:04.678Z,77.38
2023-03-25T18:14:31.430Z,77.37
2023-03-25T18:16:58.144Z,77.70
2023-03-25T18:19:27.634Z,77.42
2023-03-25T18:21:55.001Z,77.20
2023-03-25T18:24:22.725Z,77.17
2023-03-25T18:26:49.811Z,77.70
2023-03-25T18:29:23.122Z,78.11
2023-03-25T18:31:49.829Z,78.06
2023-03-25T18:34:16.649Z,77.86
2023-03-25T18:36:44.761Z,78.03
2023-03-25T18:39:13.749Z,77.71
2023-03-25T18:41:41.144Z,78.44
2023-03-25T18:44:10.939Z,78.73
2023-03-25T18:46:37.900Z,75.95
2023-03-25T18:49:11.149Z,75.37
2023-03-25T18:51:37.823Z,74.96
2023-03-25T18:54:05.580Z,75.30
2023-03-25T18:56:32.377Z,75.68
2023-03-25T18:58:59.316Z,75.80
2023-03-25T19:01:27.821Z,76.20
2023-03-25T19:04:04.665Z,76.93
2023-03-25T19:06:31.333Z,76.95
2023-03-25T19:08:58.300Z,77.42
2023-03-25T19:11:26.346Z,77.10
2023-03-25T19:13:53.397Z,77.60
2023-03-25T19:16:20.873Z,76.99
2023-03-25T19:18:47.628Z,76.87
2023-03-25T19:21:18.489Z,77.61
2023-03-25T19:23:45.683Z,77.76
2023-03-25T19:26:13.438Z,77.06
2023-03-25T19:28:41.205Z,76.20
2023-03-25T19:31:07.999Z,73.39
2023-03-25T19:33:34.721Z,73.61
2023-03-25T19:36:04.702Z,73.51
2023-03-25T19:38:32.872Z,73.47
2023-03-25T19:41:06.659Z,75.32
2023-03-25T19:43:33.805Z,77.05
2023-03-25T19:46:00.979Z,77.76
2023-03-25T19:48:29.916Z,78.65
2023-03-25T19:50:56.752Z,79.55
2023-03-25T19:53:24.467Z,79.68
2023-03-25T19:55:51.900Z,80.44
2023-03-25T19:58:20.369Z,80.26
2023-03-25T20:00:47.760Z,80.74
2023-03-25T20:03:14.608Z,81.27
2023-03-25T20:05:42.191Z,80.76
2023-03-25T20:08:09.499Z,80.66
2023-03-25T20:10:38.780Z,80.55
2023-03-25T20:13:05.497Z,80.15
2023-03-25T20:15:32.419Z,80.12
2023-03-25T20:17:59.577Z,79.98
2023-03-25T20:20:26.597Z,79.30
2023-03-25T20:22:53.578Z,79.01
2023-03-25T20:25:20.657Z,78.55
2023-03-25T20:27:47.589Z,78.18
2023-03-25T20:30:17.147Z,78.92
2023-03-25T20:32:46.389Z,78.56
2023-03-25T20:35:15.847Z,78.60
2023-03-25T20:37:43.862Z,78.17
2023-03-25T20:40:13.848Z,77.85
2023-03-25T20:42:42.003Z,77.81
2023-03-25T20:45:09.753Z,77.12
2023-03-25T20:47:36.827Z,76.71
2023-03-25T20:50:05.036Z,77.05
2023-03-25T20:52:31.747Z,76.57
2023-03-25T20:54:58.232Z,76.50
2023-03-25T20:57:24.790Z,76.35
2023-03-25T20:59:54.157Z,76.52
2023-03-25T21:02:21.552Z,77.00
2023-03-25T21:04:48.213Z,76.95
2023-03-25T21:07:14.890Z,77.10
2023-03-25T21:09:41.886Z,76.80
2023-03-25T21:12:08.528Z,76.75
2023-03-25T21:14:37.627Z,76.95
2023-03-25T21:17:05.319Z,76.80
2023-03-25T21:19:31.872Z,76.55
2023-03-25T21:21:58.344Z,77.04
2023-03-25T21:24:25.151Z,77.21
2023-03-25T21:26:51.789Z,77.72
2023-03-25T21:29:19.064Z,77.79
2023-03-25T21:31:46.424Z,77.41
2023-03-25T21:34:15.753Z,77.23
2023-03-25T21:36:43.356Z,77.58
2023-03-25T21:39:10.328Z,77.10
2023-03-25T21:41:37.112Z,77.17
2023-03-25T21:44:05.505Z,77.14
2023-03-25T21:46:33.447Z,77.03
2023-03-25T21:49:01.309Z,77.12
2023-03-25T21:51:30.620Z,77.09
2023-03-25T21:53:58.612Z,76.91
2023-03-25T21:56:27.299Z,77.36
2023-03-25T21:58:53.964Z,77.19
2023-03-25T22:01:28.680Z,77.39
2023-03-25T22:03:56.911Z,77.30
2023-03-25T22:06:26.221Z,77.83
2023-03-25T22:08:53.292Z,77.61
2023-03-25T22:11:28.301Z,77.99
2023-03-25T22:13:54.928Z,78.71
2023-03-25T22:16:22.001Z,78.62
2023-03-25T22:18:49.916Z,79.23
2023-03-25T22:21:22.403Z,78.98
2023-03-25T22:23:51.132Z,79.20
2023-03-25T22:26:18.277Z,79.46
2023-03-25T22:28:45.111Z,79.19
2023-03-25T22:31:20.008Z,79.05
2023-03-25T22:33:49.441Z,79.20
2023-03-25T22:36:16.269Z,78.85
2023-03-25T22:38:45.425Z,78.81
2023-03-25T22:41:14.576Z,79.06
2023-03-25T22:43:41.972Z,79.07
2023-03-25T22:46:09.581Z,79.04
2023-03-25T22:48:39.172Z,78.95
2023-03-25T22:51:08.042Z,79.21
2023-03-25T22:53:34.971Z,79.49
2023-03-25T22:56:01.942Z,79.46
2023-03-25T22:58:31.150Z,79.50
2023-03-25T23:01:01.738Z,79.07
2023-03-25T23:03:29.072Z,78.73
2023-03-25T23:05:55.775Z,78.80
2023-03-25T23:08:25.822Z,79.25
2023-03-25T23:10:52.953Z,78.69
2023-03-25T23:13:19.801Z,78.90
2023-03-25T23:15:46.399Z,78.64
2023-03-25T23:18:14.293Z,78.80
2023-03-25T23:20:41.489Z,79.08
2023-03-25T23:23:08.159Z,78.81
2023-03-25T23:25:34.645Z,79.20
2023-03-25T23:28:01.324Z,78.70
2023-03-25T23:30:28.078Z,78.35
2023-03-25T23:32:54.694Z,79.10
2023-03-25T23:35:21.821Z,79.04
2023-03-25T23:37:50.293Z,79.23
2023-03-25T23:40:17.319Z,79.33
2023-03-25T23:42:43.907Z,79.63
2023-03-25T23:45:11.213Z,78.76
2023-03-25T23:47:38.200Z,78.85
2023-03-25T23:50:06.519Z,79.28
2023-03-25T23:52:33.612Z,79.60
2023-03-25T23:55:00.613Z,80.06
2023-03-25T23:57:27.408Z,80.49
2023-03-25T23:59:56.858Z,80.83
